Time;durP1;ratioP1;P1;durP2;ratioP2;P2;SDS_P1;SDS_P2;PMS_P1;PMS_P2;Temp;Humidity;BMP_temperature;BMP_pressure;BME280_temperature;BME280_humidity;BME280_pressure;Samples;Min_cycle;Max_cycle;Signal;HPM_P1;HPM_P2
2023/02/22 00:01:49;;;;;;;;;;;;;;;;;;4944028;28;19923;-75
2023/02/22 00:04:38;;;;;;;;;;;;;;;;;;4944456;28;19918;-76
2023/02/22 00:07:24;;;;;;;;;;;;;;;;;;4938481;28;19938;-76
2023/02/22 00:10:14;;;;;;;;;;;;;;;;;;4921348;29;19919;-76
2023/02/22 00:13:00;;;;;;;;;;;;;;;;;;4919021;29;19927;-76
2023/02/22 00:15:47;;;;;;;;;;;;;;;;;;4923394;28;20409;-77
2023/02/22 00:18:33;;;;;;;;;;;;;;;;;;4918068;29;19931;-75
2023/02/22 00:21:20;;;;;;;;;;;;;;;;;;4926565;29;19931;-76
2023/02/22 00:24:21;;;;;;;;;;;;;;;;;;4926459;29;19922;-75
2023/02/22 00:27:08;;;;;;;;;;;;;;;;;;4922498;29;19922;-76
2023/02/22 00:29:55;;;;;;;;;;;;;;;;;;4919521;29;20522;-75
2023/02/22 00:32:41;;;;;;;;;;;;;;;;;;4934884;29;19923;-75
2023/02/22 00:35:28;;;;;;;;;;;;;;;;;;4923168;29;19929;-75
2023/02/22 00:38:14;;;;;;;;;;;;;;;;;;4927794;29;19934;-75
2023/02/22 00:41:01;;;;;;;;;;;;;;;;;;4928007;28;19919;-76
2023/02/22 00:43:47;;;;;;;;;;;;;;;;;;4936723;28;19930;-76
2023/02/22 00:46:34;;;;;;;;;;;;;;;;;;4925903;28;20312;-76
2023/02/22 00:49:20;;;;;;;;;;;;;;;;;;4932069;29;19919;-76
2023/02/22 00:52:08;;;;;;;;;;;;;;;;;;4925057;28;19922;-76
2023/02/22 00:54:54;;;;;;;;;;;;;;;;;;4928093;29;19918;-75
2023/02/22 00:57:41;;;;;;;;;;;;;;;;;;4931904;28;19929;-76
2023/02/22 01:00:27;;;;;;;;;;;;;;;;;;4930461;28;19918;-75
2023/02/22 01:03:14;;;;;;;;;;;;;;;;;;4925607;29;19925;-76
2023/02/22 01:06:01;;;;;;;;;;;;;;;;;;4924496;29;20579;-76
2023/02/22 01:08:47;;;;;;;;;;;;;;;;;;4934140;28;19930;-76
2023/02/22 01:11:34;;;;;;;;;;;;;;;;;;4932115;29;19930;-75
2023/02/22 01:14:21;;;;;;;;;;;;;;;;;;4925164;29;19918;-75
2023/02/22 01:17:07;;;;;;;;;;;;;;;;;;4930418;29;19926;-75
2023/02/22 01:19:54;;;;;;;;;;;;;;;;;;4912347;29;19922;-76
2023/02/22 01:22:41;;;;;;;;;;;;;;;;;;4922037;29;19921;-76
2023/02/22 01:25:27;;;;;;;;;;;;;;;;;;4918090;29;19923;-75
2023/02/22 01:28:14;;;;;;;;;;;;;;;;;;4924819;29;19923;-75
2023/02/22 01:31:01;;;;;;;;;;;;;;;;;;4926610;29;19925;-75
2023/02/22 01:33:49;;;;;;;;;;;;;;;;;;4925220;29;19929;-74
2023/02/22 01:36:36;;;;;;;;;;;;;;;;;;4923226;29;19965;-75
2023/02/22 01:39:22;;;;;;;;;;;;;;;;;;4910849;29;19927;-75
2023/02/22 01:42:09;;;;;;;;;;;;;;;;;;4928621;29;19919;-75
2023/02/22 01:44:55;;;;;;;;;;;;;;;;;;4915135;29;19930;-77
2023/02/22 01:47:42;;;;;;;;;;;;;;;;;;4918676;29;19919;-76
2023/02/22 01:50:28;;;;;;;;;;;;;;;;;;4935812;28;19927;-76
2023/02/22 01:53:14;;;;;;;;;;;;;;;;;;4930418;29;19922;-75
2023/02/22 01:56:01;;;;;;;;;;;;;;;;;;4925099;29;20312;-76
2023/02/22 01:58:47;;;;;;;;;;;;;;;;;;4925076;29;19934;-76
2023/02/22 02:01:34;;;;;;;;;;;;;;;;;;4925551;29;20272;-75
2023/02/22 02:04:24;;;;;;;;;;;;;;;;;;4914141;29;19950;-75
2023/02/22 02:07:10;;;;;;;;;;;;;;;;;;4921091;28;19923;-76
2023/02/22 02:09:57;;;;;;;;;;;;;;;;;;4918644;29;20032;-76
2023/02/22 02:12:44;;;;;;;;;;;;;;;;;;4918334;29;19925;-76
2023/02/22 02:15:30;;;;;;;;;;;;;;;;;;4924078;29;19923;-76
2023/02/22 02:18:16;;;;;;;;;;;;;;;;;;4934906;28;20736;-76
2023/02/22 02:21:03;;;;;;;;;;;;;;;;;;4928266;28;19969;-76
2023/02/22 02:23:49;;;;;;;;;;;;;;;;;;4921126;29;19997;-75
2023/02/22 02:26:36;;;;;;;;;;;;;;;;;;4927983;29;19922;-75
2023/02/22 02:29:22;;;;;;;;;;;;;;;;;;4923920;28;19962;-75
2023/02/22 02:32:09;;;;;;;;;;;;;;;;;;4932988;28;19945;-75
2023/02/22 02:34:56;;;;;;;;;;;;;;;;;;4929019;29;19925;-76
2023/02/22 02:37:42;;;;;;;;;;;;;;;;;;4933959;28;19923;-76
2023/02/22 02:40:29;;;;;;;;;;;;;;;;;;4924779;29;19957;-75
2023/02/22 02:43:16;;;;;;;;;;;;;;;;;;4911983;29;19929;-76
2023/02/22 02:46:02;;;;;;;;;;;;;;;;;;4921209;29;19935;-76
2023/02/22 02:48:49;;;;;;;;;;;;;;;;;;4931643;28;19923;-76
2023/02/22 02:51:35;;;;;;;;;;;;;;;;;;4939897;28;19919;-76
2023/02/22 02:54:22;;;;;;;;;;;;;;;;;;4934771;28;19923;-76
2023/02/22 02:57:08;;;;;;;;;;;;;;;;;;4929571;29;19918;-76
2023/02/22 02:59:55;;;;;;;;;;;;;;;;;;4928190;29;20298;-76
2023/02/22 03:02:41;;;;;;;;;;;;;;;;;;4931422;29;19918;-76
2023/02/22 03:05:28;;;;;;;;;;;;;;;;;;4927338;28;19923;-76
2023/02/22 03:08:16;;;;;;;;;;;;;;;;;;4936781;28;19934;-76
2023/02/22 03:11:03;;;;;;;;;;;;;;;;;;4944576;28;19925;-75
2023/02/22 03:13:50;;;;;;;;;;;;;;;;;;4931033;29;19918;-76
2023/02/22 03:16:37;;;;;;;;;;;;;;;;;;4941079;29;19918;-76
2023/02/22 03:19:23;;;;;;;;;;;;;;;;;;4940201;29;19937;-76
2023/02/22 03:22:10;;;;;;;;;;;;;;;;;;4931390;29;19930;-76
2023/02/22 03:24:57;;;;;;;;;;;;;;;;;;4943786;29;19929;-76
2023/02/22 03:27:45;;;;;;;;;;;;;;;;;;4946456;28;20485;-75
2023/02/22 03:30:31;;;;;;;;;;;;;;;;;;4937302;28;19920;-75
2023/02/22 03:33:19;;;;;;;;;;;;;;;;;;4943524;29;19925;-76
2023/02/22 03:36:05;;;;;;;;;;;;;;;;;;4945937;28;19918;-76
2023/02/22 03:38:54;;;;;;;;;;;;;;;;;;4928001;29;19933;-75
2023/02/22 03:41:40;;;;;;;;;;;;;;;;;;4941370;29;20016;-75
2023/02/22 03:44:27;;;;;;;;;;;;;;;;;;4930322;29;19922;-76
2023/02/22 03:47:14;;;;;;;;;;;;;;;;;;4942277;29;19934;-76
2023/02/22 03:50:05;;;;;;;;;;;;;;;;;;4931451;29;19918;-75
2023/02/22 03:52:52;;;;;;;;;;;;;;;;;;4946408;28;19918;-76
2023/02/22 03:55:38;;;;;;;;;;;;;;;;;;4941096;29;20590;-75
2023/02/22 03:58:25;;;;;;;;;;;;;;;;;;4943244;29;19931;-75
2023/02/22 04:01:12;;;;;;;;;;;;;;;;;;4931786;29;19925;-76
2023/02/22 04:03:59;;;;;;;;;;;;;;;;;;4940304;29;19932;-75
2023/02/22 04:06:46;;;;;;;;;;;;;;;;;;4937833;28;19925;-75
2023/02/22 04:09:33;;;;;;;;;;;;;;;;;;4947060;28;19941;-75
2023/02/22 04:12:19;;;;;;;;;;;;;;;;;;4938441;29;19921;-77
2023/02/22 04:15:06;;;;;;;;;;;;;;;;;;4945049;29;20489;-75
2023/02/22 04:17:52;;;;;;;;;;;;;;;;;;4936111;28;19966;-76
2023/02/22 04:20:39;;;;;;;;;;;;;;;;;;4926471;29;19933;-75
2023/02/22 04:23:25;;;;;;;;;;;;;;;;;;4935627;29;19925;-74
2023/02/22 04:26:12;;;;;;;;;;;;;;;;;;4941460;29;20378;-74
2023/02/22 04:28:58;;;;;;;;;;;;;;;;;;4946571;28;19926;-75
2023/02/22 04:31:45;;;;;;;;;;;;;;;;;;4940906;28;19942;-75
2023/02/22 04:34:31;;;;;;;;;;;;;;;;;;4947379;28;20409;-75
2023/02/22 04:37:18;;;;;;;;;;;;;;;;;;4942618;28;20295;-75
2023/02/22 04:40:06;;;;;;;;;;;;;;;;;;4930691;29;19926;-75
2023/02/22 04:42:53;;;;;;;;;;;;;;;;;;4924304;29;19925;-75
2023/02/22 04:45:39;;;;;;;;;;;;;;;;;;4944634;29;19926;-74
2023/02/22 04:48:26;;;;;;;;;;;;;;;;;;4928509;28;19945;-75
2023/02/22 04:51:12;;;;;;;;;;;;;;;;;;4928875;29;19922;-75
2023/02/22 04:53:59;;;;;;;;;;;;;;;;;;4943707;29;19925;-75
2023/02/22 04:56:45;;;;;;;;;;;;;;;;;;4933625;28;19918;-75
2023/02/22 04:59:32;;;;;;;;;;;;;;;;;;4938954;29;19937;-75
2023/02/22 05:02:18;;;;;;;;;;;;;;;;;;4938642;29;19919;-74
2023/02/22 05:05:05;;;;;;;;;;;;;;;;;;4921966;29;20299;-75
2023/02/22 05:07:52;;;;;;;;;;;;;;;;;;4946559;28;19927;-76
2023/02/22 05:10:38;;;;;;;;;;;;;;;;;;4920969;29;19922;-75
2023/02/22 05:13:25;;;;;;;;;;;;;;;;;;4942264;28;19919;-75
2023/02/22 05:16:11;;;;;;;;;;;;;;;;;;4942313;29;19918;-75
2023/02/22 05:18:57;;;;;;;;;;;;;;;;;;4940029;29;19931;-75
2023/02/22 05:21:44;;;;;;;;;;;;;;;;;;4936496;29;19918;-76
2023/02/22 05:24:31;;;;;;;;;;;;;;;;;;4933970;29;20442;-78
2023/02/22 05:27:17;;;;;;;;;;;;;;;;;;4940347;29;19918;-76
2023/02/22 05:30:04;;;;;;;;;;;;;;;;;;4944100;28;20576;-75
2023/02/22 05:32:50;;;;;;;;;;;;;;;;;;4943124;29;19925;-75
2023/02/22 05:35:37;;;;;;;;;;;;;;;;;;4943842;29;20562;-75
2023/02/22 05:38:23;;;;;;;;;;;;;;;;;;4943824;29;19922;-74
2023/02/22 05:41:10;;;;;;;;;;;;;;;;;;4942081;28;19930;-74
2023/02/22 05:43:56;;;;;;;;;;;;;;;;;;4936776;29;19926;-74
2023/02/22 05:46:43;;;;;;;;;;;;;;;;;;4938126;28;19978;-73
2023/02/22 05:49:29;;;;;;;;;;;;;;;;;;4936158;28;19918;-74
2023/02/22 05:52:15;;;;;;;;;;;;;;;;;;4938055;29;19926;-74
2023/02/22 05:55:03;;;;;;;;;;;;;;;;;;4941123;29;19919;-75
2023/02/22 05:57:49;;;;;;;;;;;;;;;;;;4933864;29;19922;-75
2023/02/22 06:00:36;;;;;;;;;;;;;;;;;;4940978;28;19922;-74
2023/02/22 06:03:22;;;;;;;;;;;;;;;;;;4948181;29;19945;-74
2023/02/22 06:06:09;;;;;;;;;;;;;;;;;;4945035;29;20639;-74
2023/02/22 06:08:55;;;;;;;;;;;;;;;;;;4931557;29;19937;-74
2023/02/22 06:11:42;;;;;;;;;;;;;;;;;;4922428;29;19919;-75
2023/02/22 06:14:28;;;;;;;;;;;;;;;;;;4923478;29;19923;-73
2023/02/22 06:17:15;;;;;;;;;;;;;;;;;;4924367;29;19923;-73
2023/02/22 06:20:01;;;;;;;;;;;;;;;;;;4926116;29;20295;-73
2023/02/22 06:22:48;;;;;;;;;;;;;;;;;;4929017;29;20316;-74
2023/02/22 06:25:35;;;;;;;;;;;;;;;;;;4928309;29;19926;-73
2023/02/22 06:28:22;;;;;;;;;;;;;;;;;;4920647;29;20267;-74
2023/02/22 06:31:09;;;;;;;;;;;;;;;;;;4925217;29;20203;-74
2023/02/22 06:33:55;;;;;;;;;;;;;;;;;;4936583;28;19937;-74
2023/02/22 06:36:42;;;;;;;;;;;;;;;;;;4927252;29;19919;-74
2023/02/22 06:39:28;;;;;;;;;;;;;;;;;;4931855;29;19946;-74
2023/02/22 06:42:14;;;;;;;;;;;;;;;;;;4933518;29;19973;-73
2023/02/22 06:45:01;;;;;;;;;;;;;;;;;;4927270;29;19918;-74
2023/02/22 06:47:50;;;;;;;;;;;;;;;;;;4923497;29;19926;-74
2023/02/22 06:50:37;;;;;;;;;;;;;;;;;;4922981;29;20328;-74
2023/02/22 06:53:23;;;;;;;;;;;;;;;;;;4937495;28;20003;-74
2023/02/22 06:56:10;;;;;;;;;;;;;;;;;;4921358;29;19919;-74
2023/02/22 06:58:56;;;;;;;;;;;;;;;;;;4928637;29;20614;-74
2023/02/22 07:01:43;;;;;;;;;;;;;;;;;;4914047;29;20598;-75
2023/02/22 07:04:30;;;;;;;;;;;;;;;;;;4917240;29;19929;-75
2023/02/22 07:07:16;;;;;;;;;;;;;;;;;;4934968;28;19933;-74
2023/02/22 07:10:05;;;;;;;;;;;;;;;;;;4933286;28;19922;-73
2023/02/22 07:12:52;;;;;;;;;;;;;;;;;;4933532;28;19965;-74
2023/02/22 07:15:38;;;;;;;;;;;;;;;;;;4937510;29;20328;-74
2023/02/22 07:18:25;;;;;;;;;;;;;;;;;;4934384;29;20306;-75
2023/02/22 07:21:11;;;;;;;;;;;;;;;;;;4932606;28;19927;-75
2023/02/22 07:23:58;;;;;;;;;;;;;;;;;;4939634;28;19922;-75
2023/02/22 07:26:44;;;;;;;;;;;;;;;;;;4939945;28;19919;-75
2023/02/22 07:29:31;;;;;;;;;;;;;;;;;;4942588;29;19922;-75
2023/02/22 07:32:17;;;;;;;;;;;;;;;;;;4939634;28;19918;-75
2023/02/22 07:35:04;;;;;;;;;;;;;;;;;;4935864;29;19949;-75
2023/02/22 07:37:50;;;;;;;;;;;;;;;;;;4934088;29;19933;-75
2023/02/22 07:40:37;;;;;;;;;;;;;;;;;;4943058;29;19946;-75
2023/02/22 07:43:23;;;;;;;;;;;;;;;;;;4937145;28;19949;-75
2023/02/22 07:46:10;;;;;;;;;;;;;;;;;;4935504;29;19930;-74
2023/02/22 07:48:56;;;;;;;;;;;;;;;;;;4939616;29;19918;-75
2023/02/22 07:51:43;;;;;;;;;;;;;;;;;;4936080;29;19923;-76
2023/02/22 07:54:29;;;;;;;;;;;;;;;;;;4934028;29;19918;-75
2023/02/22 07:57:16;;;;;;;;;;;;;;;;;;4931587;28;20400;-75
2023/02/22 08:00:03;;;;;;;;;;;;;;;;;;4924211;29;19931;-75
2023/02/22 08:02:49;;;;;;;;;;;;;;;;;;4934739;29;20378;-76
2023/02/22 08:05:36;;;;;;;;;;;;;;;;;;4938829;29;19929;-76
2023/02/22 08:08:22;;;;;;;;;;;;;;;;;;4932252;28;20002;-74
2023/02/22 08:11:09;;;;;;;;;;;;;;;;;;4936360;28;20263;-75
2023/02/22 08:13:55;;;;;;;;;;;;;;;;;;4937732;28;19935;-75
2023/02/22 08:16:42;;;;;;;;;;;;;;;;;;4936238;28;19922;-75
2023/02/22 08:19:28;;;;;;;;;;;;;;;;;;4933700;28;20298;-77
2023/02/22 08:22:15;;;;;;;;;;;;;;;;;;4935496;28;19923;-74
2023/02/22 08:25:01;;;;;;;;;;;;;;;;;;4935842;28;19919;-75
2023/02/22 08:27:48;;;;;;;;;;;;;;;;;;4935081;28;19929;-75
2023/02/22 08:30:34;;;;;;;;;;;;;;;;;;4930069;28;19919;-74
2023/02/22 08:33:21;;;;;;;;;;;;;;;;;;4934865;28;19927;-74
2023/02/22 08:36:07;;;;;;;;;;;;;;;;;;4941943;28;19922;-75
2023/02/22 08:38:54;;;;;;;;;;;;;;;;;;4936314;28;19928;-75
2023/02/22 08:41:40;;;;;;;;;;;;;;;;;;4945768;28;19930;-75
2023/02/22 08:44:27;;;;;;;;;;;;;;;;;;4940097;29;19926;-75
2023/02/22 08:47:13;;;;;;;;;;;;;;;;;;4939233;28;20384;-75
2023/02/22 08:50:00;;;;;;;;;;;;;;;;;;4938885;28;19923;-76
2023/02/22 08:52:46;;;;;;;;;;;;;;;;;;4942839;28;19919;-76
2023/02/22 08:55:33;;;;;;;;;;;;;;;;;;4944478;28;19953;-76
2023/02/22 08:58:19;;;;;;;;;;;;;;;;;;4934500;28;20378;-75
2023/02/22 09:01:06;;;;;;;;;;;;;;;;;;4940661;28;20009;-76
2023/02/22 09:03:52;;;;;;;;;;;;;;;;;;4936713;28;19918;-76
2023/02/22 09:06:39;;;;;;;;;;;;;;;;;;4933676;28;19923;-75
2023/02/22 09:09:25;;;;;;;;;;;;;;;;;;4940549;29;19923;-75
2023/02/22 09:12:12;;;;;;;;;;;;;;;;;;4940410;29;19919;-75
2023/02/22 09:14:58;;;;;;;;;;;;;;;;;;4924672;29;20368;-75
2023/02/22 09:17:45;;;;;;;;;;;;;;;;;;4940812;29;19929;-73
2023/02/22 09:20:31;;;;;;;;;;;;;;;;;;4928064;29;19927;-75
2023/02/22 09:23:19;;;;;;;;;;;;;;;;;;4939753;29;19922;-75
2023/02/22 09:26:06;;;;;;;;;;;;;;;;;;4946166;28;19923;-74
2023/02/22 09:28:52;;;;;;;;;;;;;;;;;;4943312;29;19919;-75
2023/02/22 09:31:39;;;;;;;;;;;;;;;;;;4945406;29;20287;-75
2023/02/22 09:34:28;;;;;;;;;;;;;;;;;;4940416;28;19915;-75
2023/02/22 09:37:14;;;;;;;;;;;;;;;;;;4939909;29;19930;-76
2023/02/22 09:40:01;;;;;;;;;;;;;;;;;;4940076;29;19926;-75
2023/02/22 09:42:47;;;;;;;;;;;;;;;;;;4941310;29;19930;-76
2023/02/22 09:45:35;;;;;;;;;;;;;;;;;;4940692;29;19922;-75
2023/02/22 09:48:22;;;;;;;;;;;;;;;;;;4930114;29;19925;-74
2023/02/22 09:51:10;;;;;;;;;;;;;;;;;;4925214;29;19918;-74
2023/02/22 09:53:57;;;;;;;;;;;;;;;;;;4936115;29;19914;-75
2023/02/22 09:56:45;;;;;;;;;;;;;;;;;;4944368;29;19973;-75
2023/02/22 09:59:31;;;;;;;;;;;;;;;;;;4941721;29;19931;-75
2023/02/22 10:02:18;;;;;;;;;;;;;;;;;;4931853;29;19922;-75
2023/02/22 10:05:05;;;;;;;;;;;;;;;;;;4944091;29;19927;-76
2023/02/22 10:07:51;;;;;;;;;;;;;;;;;;4937479;28;20371;-75
2023/02/22 10:10:38;;;;;;;;;;;;;;;;;;4931776;29;19935;-75
2023/02/22 10:13:24;;;;;;;;;;;;;;;;;;4938038;28;19922;-74
2023/02/22 10:16:11;;;;;;;;;;;;;;;;;;4938012;28;19929;-75
2023/02/22 10:18:58;;;;;;;;;;;;;;;;;;4937055;28;19926;-74
2023/02/22 10:21:46;;;;;;;;;;;;;;;;;;4926979;29;20020;-75
2023/02/22 10:24:37;;;;;;;;;;;;;;;;;;4934782;29;19945;-75
2023/02/22 10:27:23;;;;;;;;;;;;;;;;;;4933306;29;19924;-76
2023/02/22 10:30:10;;;;;;;;;;;;;;;;;;4935548;29;19915;-76
2023/02/22 10:32:56;;;;;;;;;;;;;;;;;;4938952;29;19924;-76
2023/02/22 10:35:43;;;;;;;;;;;;;;;;;;4935501;29;19919;-76
2023/02/22 10:38:29;;;;;;;;;;;;;;;;;;4917366;29;19926;-76
2023/02/22 10:41:16;;;;;;;;;;;;;;;;;;4932334;29;19923;-75
2023/02/22 10:44:02;;;;;;;;;;;;;;;;;;4924364;29;19918;-75
2023/02/22 10:46:49;;;;;;;;;;;;;;;;;;4934831;29;20345;-75
2023/02/22 10:49:35;;;;;;;;;;;;;;;;;;4938449;29;19929;-74
2023/02/22 10:52:22;;;;;;;;;;;;;;;;;;4927374;29;19923;-75
2023/02/22 10:55:11;;;;;;;;;;;;;;;;;;4940289;29;19922;-74
2023/02/22 10:57:57;;;;;;;;;;;;;;;;;;4945831;29;19918;-75
2023/02/22 11:00:44;;;;;;;;;;;;;;;;;;4940681;29;19926;-74
2023/02/22 11:03:32;;;;;;;;;;;;;;;;;;4941317;29;19927;-75
2023/02/22 11:06:18;;;;;;;;;;;;;;;;;;4925761;29;20387;-75
2023/02/22 11:09:14;;;;;;;;;;;;;;;;;;4936400;29;19926;-76
2023/02/22 11:12:01;;;;;;;;;;;;;;;;;;4927422;29;19949;-79
2023/02/22 11:14:47;;;;;;;;;;;;;;;;;;4928318;29;19919;-78
2023/02/22 11:17:34;;;;;;;;;;;;;;;;;;4942697;29;19923;-79
2023/02/22 11:20:26;;;;;;;;;;;;;;;;;;4934768;29;20463;-79
2023/02/22 11:23:13;;;;;;;;;;;;;;;;;;4935893;29;19922;-79
2023/02/22 11:26:00;;;;;;;;;;;;;;;;;;4937372;28;19919;-79
2023/02/22 11:28:49;;;;;;;;;;;;;;;;;;4943346;29;19929;-78
2023/02/22 11:31:36;;;;;;;;;;;;;;;;;;4934652;29;19918;-79
2023/02/22 11:34:22;;;;;;;;;;;;;;;;;;4942722;28;19929;-80
2023/02/22 11:37:09;;;;;;;;;;;;;;;;;;4938131;29;20290;-79
2023/02/22 11:39:55;;;;;;;;;;;;;;;;;;4940255;29;19930;-80
2023/02/22 11:42:42;;;;;;;;;;;;;;;;;;4939707;29;19925;-79
2023/02/22 11:45:28;;;;;;;;;;;;;;;;;;4932866;28;19919;-79
2023/02/22 11:48:15;;;;;;;;;;;;;;;;;;4933746;28;19922;-80
2023/02/22 11:51:01;;;;;;;;;;;;;;;;;;4936085;29;20321;-80
2023/02/22 11:53:48;;;;;;;;;;;;;;;;;;4933115;29;20439;-80
2023/02/22 11:56:34;;;;;;;;;;;;;;;;;;4939823;28;19930;-80
2023/02/22 11:59:21;;;;;;;;;;;;;;;;;;4942419;28;19933;-79
2023/02/22 12:02:07;;;;;;;;;;;;;;;;;;4941667;29;19933;-80
2023/02/22 12:04:53;;;;;;;;;;;;;;;;;;4934028;28;21071;-79
2023/02/22 12:07:41;;;;;;;;;;;;;;;;;;4935317;28;19934;-80
2023/02/22 12:10:27;;;;;;;;;;;;;;;;;;4937093;29;19919;-80
2023/02/22 12:13:15;;;;;;;;;;;;;;;;;;4935909;29;19925;-80
2023/02/22 12:16:02;;;;;;;;;;;;;;;;;;4919041;29;19929;-79
2023/02/22 12:18:48;;;;;;;;;;;;;;;;;;4933101;29;19945;-80
2023/02/22 12:21:35;;;;;;;;;;;;;;;;;;4935842;29;19926;-79
2023/02/22 12:24:21;;;;;;;;;;;;;;;;;;4939016;29;20006;-79
2023/02/22 12:27:11;;;;;;;;;;;;;;;;;;4935758;29;20385;-79
2023/02/22 12:29:58;;;;;;;;;;;;;;;;;;4934030;29;19937;-80
2023/02/22 12:32:45;;;;;;;;;;;;;;;;;;4933879;29;19923;-82
2023/02/22 12:35:33;;;;;;;;;;;;;;;;;;4939396;28;19926;-80
2023/02/22 12:38:21;;;;;;;;;;;;;;;;;;4934249;29;19933;-81
2023/02/22 12:41:08;;;;;;;;;;;;;;;;;;4926529;29;19933;-81
2023/02/22 12:43:54;;;;;;;;;;;;;;;;;;4922876;28;19929;-81
2023/02/22 12:46:41;;;;;;;;;;;;;;;;;;4942415;28;19934;-81
2023/02/22 12:49:27;;;;;;;;;;;;;;;;;;4924562;28;19922;-80
2023/02/22 12:52:15;;;;;;;;;;;;;;;;;;4933349;29;19914;-79
2023/02/22 12:55:01;;;;;;;;;;;;;;;;;;4935634;29;19927;-80
2023/02/22 12:57:48;;;;;;;;;;;;;;;;;;4928530;29;20260;-81
2023/02/22 13:00:34;;;;;;;;;;;;;;;;;;4934491;28;19930;-80
2023/02/22 13:03:21;;;;;;;;;;;;;;;;;;4934772;29;19981;-81
2023/02/22 13:06:07;;;;;;;;;;;;;;;;;;4933043;28;19922;-80
2023/02/22 13:08:54;;;;;;;;;;;;;;;;;;4929078;28;19931;-79
2023/02/22 13:11:40;;;;;;;;;;;;;;;;;;4927012;29;19922;-79
2023/02/22 13:14:28;;;;;;;;;;;;;;;;;;4935781;29;19922;-80
2023/02/22 13:17:19;;;;;;;;;;;;;;;;;;4912216;29;19915;-81
2023/02/22 13:20:06;;;;;;;;;;;;;;;;;;4936333;29;20427;-80
2023/02/22 13:22:52;;;;;;;;;;;;;;;;;;4935844;29;19923;-79
2023/02/22 13:25:39;;;;;;;;;;;;;;;;;;4940331;29;19956;-80
2023/02/22 13:28:27;;;;;;;;;;;;;;;;;;4932801;29;20687;-79
2023/02/22 13:31:14;;;;;;;;;;;;;;;;;;4932632;29;19919;-80
2023/02/22 13:34:01;;;;;;;;;;;;;;;;;;4935618;29;19923;-80
2023/02/22 13:36:48;;;;;;;;;;;;;;;;;;4935456;28;20275;-79
2023/02/22 13:39:35;;;;;;;;;;;;;;;;;;4938704;29;19930;-79
2023/02/22 13:42:21;;;;;;;;;;;;;;;;;;4938311;29;19922;-79
2023/02/22 13:45:08;;;;;;;;;;;;;;;;;;4937462;29;19933;-78
2023/02/22 13:47:54;;;;;;;;;;;;;;;;;;4933732;29;19918;-79
2023/02/22 13:50:41;;;;;;;;;;;;;;;;;;4940811;29;19922;-79
2023/02/22 13:53:27;;;;;;;;;;;;;;;;;;4935040;29;20401;-80
2023/02/22 13:56:14;;;;;;;;;;;;;;;;;;4927223;29;20286;-81
2023/02/22 13:59:01;;;;;;;;;;;;;;;;;;4932880;29;19933;-80
2023/02/22 14:01:47;;;;;;;;;;;;;;;;;;4936110;29;20770;-79
2023/02/22 14:04:35;;;;;;;;;;;;;;;;;;4931852;29;19929;-78
2023/02/22 14:07:25;;;;;;;;;;;;;;;;;;4935362;28;19930;-81
2023/02/22 14:10:11;;;;;;;;;;;;;;;;;;4922362;29;19919;-79
2023/02/22 14:12:58;;;;;;;;;;;;;;;;;;4936951;29;19922;-79
2023/02/22 14:15:46;;;;;;;;;;;;;;;;;;4933970;29;20392;-80
2023/02/22 14:18:32;;;;;;;;;;;;;;;;;;4935246;29;19942;-79
2023/02/22 14:21:19;;;;;;;;;;;;;;;;;;4939955;28;20542;-79
2023/02/22 14:24:05;;;;;;;;;;;;;;;;;;4936700;29;19942;-79
2023/02/22 14:26:52;;;;;;;;;;;;;;;;;;4941041;29;19926;-78
2023/02/22 14:29:38;;;;;;;;;;;;;;;;;;4941766;29;20398;-79
2023/02/22 14:32:29;;;;;;;;;;;;;;;;;;4938854;29;19921;-80
2023/02/22 14:35:15;;;;;;;;;;;;;;;;;;4933840;29;19925;-79
2023/02/22 14:38:02;;;;;;;;;;;;;;;;;;4930937;29;20004;-78
2023/02/22 14:40:48;;;;;;;;;;;;;;;;;;4946714;29;19933;-77
2023/02/22 14:43:35;;;;;;;;;;;;;;;;;;4943158;28;19929;-79
2023/02/22 14:46:21;;;;;;;;;;;;;;;;;;4938360;28;19922;-78
2023/02/22 14:49:08;;;;;;;;;;;;;;;;;;4944620;29;19929;-78
2023/02/22 14:51:55;;;;;;;;;;;;;;;;;;4933266;28;19934;-79
2023/02/22 14:54:42;;;;;;;;;;;;;;;;;;4945418;28;20279;-78
2023/02/22 14:57:29;;;;;;;;;;;;;;;;;;4939161;29;19930;-77
2023/02/22 15:00:18;;;;;;;;;;;;;;;;;;4937777;29;19935;-78
2023/02/22 15:03:05;;;;;;;;;;;;;;;;;;4941593;29;19918;-78
2023/02/22 15:05:51;;;;;;;;;;;;;;;;;;4946508;28;19925;-78
2023/02/22 15:08:40;;;;;;;;;;;;;;;;;;4936571;28;20437;-78
2023/02/22 15:11:30;;;;;;;;;;;;;;;;;;4943504;28;19915;-79
2023/02/22 15:14:17;;;;;;;;;;;;;;;;;;4930300;28;19925;-79
2023/02/22 15:17:03;;;;;;;;;;;;;;;;;;4942322;28;20371;-80
2023/02/22 15:19:50;;;;;;;;;;;;;;;;;;4938295;28;19927;-80
2023/02/22 15:22:36;;;;;;;;;;;;;;;;;;4935822;28;19925;-79
2023/02/22 15:25:23;;;;;;;;;;;;;;;;;;4935350;28;19926;-79
2023/02/22 15:28:10;;;;;;;;;;;;;;;;;;4938726;29;19919;-79
2023/02/22 15:30:57;;;;;;;;;;;;;;;;;;4935002;28;19923;-79
2023/02/22 15:33:43;;;;;;;;;;;;;;;;;;4943502;28;19929;-80
2023/02/22 15:36:30;;;;;;;;;;;;;;;;;;4926473;28;19940;-80
2023/02/22 15:39:16;;;;;;;;;;;;;;;;;;4940793;29;19926;-80
2023/02/22 15:42:03;;;;;;;;;;;;;;;;;;4935706;28;19923;-79
2023/02/22 15:44:51;;;;;;;;;;;;;;;;;;4937855;29;19927;-79
2023/02/22 15:47:38;;;;;;;;;;;;;;;;;;4943862;29;19918;-77
2023/02/22 15:50:25;;;;;;;;;;;;;;;;;;4945704;28;20260;-80
2023/02/22 15:53:12;;;;;;;;;;;;;;;;;;4931330;29;20303;-80
2023/02/22 15:55:58;;;;;;;;;;;;;;;;;;4940252;29;20299;-79
2023/02/22 15:58:45;;;;;;;;;;;;;;;;;;4936488;29;19929;-79
2023/02/22 16:01:31;;;;;;;;;;;;;;;;;;4938524;28;19931;-79
2023/02/22 16:04:18;;;;;;;;;;;;;;;;;;4935516;28;19926;-80
2023/02/22 16:07:05;;;;;;;;;;;;;;;;;;4940499;29;19933;-80
2023/02/22 16:09:52;;;;;;;;;;;;;;;;;;4944669;29;20054;-80
2023/02/22 16:12:38;;;;;;;;;;;;;;;;;;4947602;28;19926;-79
2023/02/22 16:15:25;;;;;;;;;;;;;;;;;;4938743;29;19922;-79
2023/02/22 16:18:11;;;;;;;;;;;;;;;;;;4941821;29;19929;-78
2023/02/22 16:20:58;;;;;;;;;;;;;;;;;;4943038;29;20694;-78
2023/02/22 16:23:44;;;;;;;;;;;;;;;;;;4941787;29;19930;-78
2023/02/22 16:26:31;;;;;;;;;;;;;;;;;;4942322;29;19926;-79
2023/02/22 16:29:18;;;;;;;;;;;;;;;;;;4944042;29;19929;-78
2023/02/22 16:32:04;;;;;;;;;;;;;;;;;;4931738;29;19918;-78
2023/02/22 16:34:51;;;;;;;;;;;;;;;;;;4935136;29;19919;-78
2023/02/22 16:37:37;;;;;;;;;;;;;;;;;;4939056;29;20400;-78
2023/02/22 16:40:23;;;;;;;;;;;;;;;;;;4938068;29;19937;-77
2023/02/22 16:43:10;;;;;;;;;;;;;;;;;;4931311;28;19929;-79
2023/02/22 16:45:56;;;;;;;;;;;;;;;;;;4925516;29;19933;-79
2023/02/22 16:48:44;;;;;;;;;;;;;;;;;;4945764;28;19923;-78
2023/02/22 16:51:31;;;;;;;;;;;;;;;;;;4927790;29;19923;-79
2023/02/22 16:54:17;;;;;;;;;;;;;;;;;;4941241;28;19929;-79
2023/02/22 16:57:04;;;;;;;;;;;;;;;;;;4923884;28;20059;-78
2023/02/22 16:59:51;;;;;;;;;;;;;;;;;;4937289;29;19938;-79
2023/02/22 17:02:38;;;;;;;;;;;;;;;;;;4939882;29;19922;-77
2023/02/22 17:05:24;;;;;;;;;;;;;;;;;;4938999;28;20391;-77
2023/02/22 17:08:11;;;;;;;;;;;;;;;;;;4929597;29;19930;-76
2023/02/22 17:10:59;;;;;;;;;;;;;;;;;;4930002;29;19923;-77
2023/02/22 17:13:50;;;;;;;;;;;;;;;;;;4919126;29;19922;-76
2023/02/22 17:16:36;;;;;;;;;;;;;;;;;;4938678;29;19914;-76
2023/02/22 17:19:23;;;;;;;;;;;;;;;;;;4940643;29;20400;-77
2023/02/22 17:22:09;;;;;;;;;;;;;;;;;;4935028;29;19933;-78
2023/02/22 17:24:56;;;;;;;;;;;;;;;;;;4938735;29;19922;-78
2023/02/22 17:27:42;;;;;;;;;;;;;;;;;;4935372;29;19926;-78
2023/02/22 17:30:31;;;;;;;;;;;;;;;;;;4933562;29;19922;-78
2023/02/22 17:33:18;;;;;;;;;;;;;;;;;;4931419;29;20366;-78
2023/02/22 17:36:04;;;;;;;;;;;;;;;;;;4935257;29;20272;-78
2023/02/22 17:38:51;;;;;;;;;;;;;;;;;;4933606;29;19933;-79
2023/02/22 17:41:37;;;;;;;;;;;;;;;;;;4932241;29;19949;-78
2023/02/22 17:44:24;;;;;;;;;;;;;;;;;;4932855;29;19922;-78
2023/02/22 17:47:10;;;;;;;;;;;;;;;;;;4935773;29;19926;-79
2023/02/22 17:49:56;;;;;;;;;;;;;;;;;;4936839;29;19930;-78
2023/02/22 17:52:43;;;;;;;;;;;;;;;;;;4933787;29;20538;-78
2023/02/22 17:55:29;;;;;;;;;;;;;;;;;;4939919;29;19919;-78
2023/02/22 17:58:16;;;;;;;;;;;;;;;;;;4929314;28;20574;-78
2023/02/22 18:01:02;;;;;;;;;;;;;;;;;;4936695;29;19931;-80
2023/02/22 18:03:49;;;;;;;;;;;;;;;;;;4921683;29;19969;-78
2023/02/22 18:06:36;;;;;;;;;;;;;;;;;;4931937;28;19921;-76
2023/02/22 18:09:23;;;;;;;;;;;;;;;;;;4936136;29;19934;-78
2023/02/22 18:12:09;;;;;;;;;;;;;;;;;;4936654;29;20267;-77
2023/02/22 18:14:56;;;;;;;;;;;;;;;;;;4935057;29;19919;-78
2023/02/22 18:17:42;;;;;;;;;;;;;;;;;;4939363;28;19945;-78
2023/02/22 18:20:37;;;;;;;;;;;;;;;;;;4937873;29;19926;-78
2023/02/22 18:23:26;;;;;;;;;;;;;;;;;;4937690;29;19927;-78
2023/02/22 18:26:13;;;;;;;;;;;;;;;;;;4938441;29;19923;-78
2023/02/22 18:28:59;;;;;;;;;;;;;;;;;;4937409;29;19930;-78
2023/02/22 18:31:46;;;;;;;;;;;;;;;;;;4936530;29;20291;-78
2023/02/22 18:34:32;;;;;;;;;;;;;;;;;;4932673;29;19923;-77
2023/02/22 18:37:19;;;;;;;;;;;;;;;;;;4942582;29;19946;-77
2023/02/22 18:40:09;;;;;;;;;;;;;;;;;;4930678;28;19935;-78
2023/02/22 18:42:55;;;;;;;;;;;;;;;;;;4921491;28;19934;-78
2023/02/22 18:45:42;;;;;;;;;;;;;;;;;;4937519;29;20307;-79
2023/02/22 18:48:28;;;;;;;;;;;;;;;;;;4934200;28;19922;-79
2023/02/22 18:51:15;;;;;;;;;;;;;;;;;;4933358;29;19922;-78
2023/02/22 18:54:02;;;;;;;;;;;;;;;;;;4935008;28;20291;-77
2023/02/22 18:56:48;;;;;;;;;;;;;;;;;;4938079;29;20386;-78
2023/02/22 18:59:36;;;;;;;;;;;;;;;;;;4937484;29;19942;-81